Time;durP1;ratioP1;P1;durP2;ratioP2;P2;SDS_P1;SDS_P2;PMS_P1;PMS_P2;Temp;Humidity;BMP_temperature;BMP_pressure;BME280_temperature;BME280_humidity;BME280_pressure;Samples;Min_cycle;Max_cycle;Signal;HPM_P1;HPM_P2
2021/03/21 00:00:23;;;;;;;3.57;2.60;;;6.40;98.70;;;;;;4385045;32;20152;-65
2021/03/21 00:02:50;;;;;;;2.33;2.07;;;6.40;98.70;;;;;;4387646;32;20159;-65
2021/03/21 00:05:16;;;;;;;3.00;2.30;;;6.40;98.80;;;;;;4383368;32;20218;-65
2021/03/21 00:07:42;;;;;;;5.30;3.30;;;6.40;98.80;;;;;;4383076;32;20231;-67
2021/03/21 00:10:10;;;;;;;4.07;2.90;;;6.40;98.70;;;;;;4385773;32;20301;-68
2021/03/21 00:12:36;;;;;;;3.10;2.80;;;6.40;98.90;;;;;;4386494;32;20156;-65
2021/03/21 00:15:07;;;;;;;5.90;2.73;;;6.40;98.90;;;;;;4383563;32;20187;-65
2021/03/21 00:17:33;;;;;;;3.20;2.83;;;6.30;99.00;;;;;;4382101;32;20170;-68
2021/03/21 00:20:00;;;;;;;3.27;2.67;;;6.20;99.20;;;;;;4386826;32;20290;-69
2021/03/21 00:22:26;;;;;;;3.57;2.80;;;6.30;99.20;;;;;;4385009;32;20187;-70
2021/03/21 00:24:52;;;;;;;4.63;2.60;;;6.30;99.20;;;;;;4384834;32;20278;-66
2021/03/21 00:27:19;;;;;;;3.97;2.47;;;6.40;99.10;;;;;;4386362;32;20238;-65
2021/03/21 00:29:45;;;;;;;4.10;2.80;;;6.40;99.00;;;;;;4387145;32;20675;-67
2021/03/21 00:32:12;;;;;;;4.30;2.80;;;6.40;98.90;;;;;;4386232;32;20178;-65
2021/03/21 00:34:39;;;;;;;3.53;2.87;;;6.40;99.00;;;;;;4384965;32;20535;-65
2021/03/21 00:37:06;;;;;;;3.83;3.10;;;6.40;99.10;;;;;;4385694;32;20164;-65
2021/03/21 00:39:32;;;;;;;3.57;3.10;;;6.40;99.10;;;;;;4385832;32;20246;-65
2021/03/21 00:41:58;;;;;;;4.23;3.23;;;6.40;99.10;;;;;;4386591;32;20175;-68
2021/03/21 00:44:27;;;;;;;3.50;2.87;;;6.40;99.20;;;;;;4388064;32;20543;-68
2021/03/21 00:46:53;;;;;;;6.03;3.30;;;6.40;99.20;;;;;;4383523;32;20181;-69
2021/03/21 00:49:20;;;;;;;6.53;4.77;;;6.30;99.20;;;;;;4388022;32;20211;-65
2021/03/21 00:51:47;;;;;;;6.10;4.47;;;6.30;99.40;;;;;;4386825;32;20223;-65
2021/03/21 00:54:13;;;;;;;7.37;4.80;;;6.30;99.40;;;;;;4385017;32;20182;-64
2021/03/21 00:56:41;;;;;;;5.43;3.57;;;6.30;99.50;;;;;;4386256;32;20186;-69
2021/03/21 00:59:08;;;;;;;7.17;4.90;;;6.30;99.50;;;;;;4384034;32;21042;-68
2021/03/21 01:01:34;;;;;;;5.57;4.67;;;6.30;99.60;;;;;;4386273;32;20226;-66
2021/03/21 01:04:01;;;;;;;5.97;4.33;;;6.30;99.60;;;;;;4385458;32;20576;-66
2021/03/21 01:06:28;;;;;;;6.60;4.53;;;6.20;99.80;;;;;;4383544;32;20207;-65
2021/03/21 01:08:57;;;;;;;4.47;3.80;;;6.20;99.90;;;;;;4383180;32;20624;-65
2021/03/21 01:11:26;;;;;;;5.93;4.63;;;6.30;99.80;;;;;;4384540;32;20585;-65
2021/03/21 01:13:53;;;;;;;8.37;5.30;;;6.20;99.90;;;;;;4384369;32;20199;-65
2021/03/21 01:16:22;;;;;;;5.80;4.77;;;6.20;99.90;;;;;;4385633;32;20230;-68
2021/03/21 01:18:49;;;;;;;9.60;5.83;;;6.20;99.90;;;;;;4387224;32;20285;-67
2021/03/21 01:21:16;;;;;;;7.40;6.20;;;6.20;99.90;;;;;;4386624;32;20167;-65
2021/03/21 01:23:44;;;;;;;7.23;6.00;;;6.20;99.90;;;;;;4383254;32;20357;-67
2021/03/21 01:26:11;;;;;;;10.23;6.47;;;6.30;99.90;;;;;;4385766;32;20254;-67
2021/03/21 01:28:38;;;;;;;6.17;5.53;;;6.20;99.90;;;;;;4383235;32;20184;-67
2021/03/21 01:31:07;;;;;;;6.80;6.13;;;6.20;99.90;;;;;;4384372;32;20231;-66
2021/03/21 01:33:34;;;;;;;7.70;6.27;;;6.30;99.90;;;;;;4386735;32;20171;-68
2021/03/21 01:36:01;;;;;;;6.93;5.93;;;6.30;99.90;;;;;;4379940;32;20213;-67
2021/03/21 01:38:28;;;;;;;6.40;5.27;;;6.30;99.80;;;;;;4385697;32;20152;-69
2021/03/21 01:40:57;;;;;;;8.37;5.60;;;6.20;99.90;;;;;;4381421;32;20223;-69
2021/03/21 01:43:29;;;;;;;7.03;5.97;;;6.20;99.90;;;;;;4386833;32;20223;-67
2021/03/21 01:45:56;;;;;;;7.40;6.27;;;6.10;99.90;;;;;;4385593;32;20168;-67
2021/03/21 01:48:35;;;;;;;8.13;6.10;;;6.20;99.90;;;;;;4384495;32;20239;-69
2021/03/21 01:51:05;;;;;;;12.93;6.63;;;6.20;99.90;;;;;;4384254;32;20223;-69
2021/03/21 01:53:34;;;;;;;8.10;5.80;;;6.30;99.90;;;;;;4383604;32;20179;-68
2021/03/21 01:56:02;;;;;;;6.33;5.07;;;6.30;99.90;;;;;;4384422;32;20172;-65
2021/03/21 01:58:32;;;;;;;7.17;5.90;;;6.30;99.90;;;;;;4384516;32;20506;-68
2021/03/21 02:01:00;;;;;;;7.03;5.67;;;6.20;99.90;;;;;;4386822;32;20223;-68
2021/03/21 02:03:28;;;;;;;7.90;6.03;;;6.30;99.90;;;;;;4383136;32;20234;-65
2021/03/21 02:06:02;;;;;;;7.33;6.03;;;6.20;99.90;;;;;;4384355;32;20238;-66
2021/03/21 02:08:51;;;;;;;9.37;6.67;;;6.20;99.90;;;;;;4385328;32;20230;-66
2021/03/21 02:11:34;;;;;;;8.30;6.30;;;6.10;99.90;;;;;;4384251;32;20223;-65
2021/03/21 02:14:10;;;;;;;10.63;6.67;;;6.10;99.90;;;;;;4384857;32;20726;-67
2021/03/21 02:16:41;;;;;;;8.17;6.10;;;6.20;99.90;;;;;;4382616;32;20224;-67
2021/03/21 02:19:32;;;;;;;9.03;6.97;;;6.00;99.90;;;;;;4383124;32;20156;-67
2021/03/21 02:22:01;;;;;;;10.73;8.10;;;5.90;99.90;;;;;;4386154;32;20227;-68
2021/03/21 02:25:04;;;;;;;11.73;8.27;;;5.90;99.90;;;;;;4385171;32;20152;-69
2021/03/21 02:27:53;;;;;;;12.10;8.43;;;5.90;99.90;;;;;;4385818;32;20617;-67
2021/03/21 02:30:25;;;;;;;13.60;7.80;;;6.00;99.90;;;;;;4372734;32;20207;-68
2021/03/21 02:32:58;;;;;;;11.37;8.90;;;6.00;99.90;;;;;;4383150;32;20231;-68
2021/03/21 02:35:31;;;;;;;13.57;8.93;;;6.00;99.90;;;;;;4381338;32;20231;-67
2021/03/21 02:38:05;;;;;;;14.30;9.03;;;6.10;99.90;;;;;;4386609;32;20583;-65
2021/03/21 02:40:37;;;;;;;14.90;8.47;;;6.00;99.90;;;;;;4384466;32;20250;-66
2021/03/21 02:43:08;;;;;;;10.47;8.70;;;6.10;99.90;;;;;;4385507;32;20250;-68
2021/03/21 02:45:38;;;;;;;13.97;9.80;;;6.10;99.90;;;;;;4380986;32;20194;-69
2021/03/21 02:48:10;;;;;;;13.07;9.03;;;6.10;99.90;;;;;;4385274;32;20171;-65
2021/03/21 02:50:41;;;;;;;13.70;9.97;;;6.20;99.90;;;;;;4384787;32;20164;-69
2021/03/21 02:53:15;;;;;;;13.97;10.00;;;6.20;99.90;;;;;;4385081;32;20152;-66
2021/03/21 02:55:45;;;;;;;13.83;9.63;;;6.20;99.90;;;;;;4385129;32;20239;-67
2021/03/21 02:58:17;;;;;;;18.60;11.70;;;6.20;99.90;;;;;;4384601;32;20250;-67
2021/03/21 03:00:48;;;;;;;14.73;10.60;;;6.30;99.90;;;;;;4382318;32;20247;-69
2021/03/21 03:03:17;;;;;;;16.80;11.27;;;6.30;99.90;;;;;;4382439;32;20219;-65
2021/03/21 03:05:47;;;;;;;16.57;10.97;;;6.30;99.90;;;;;;4382375;32;20521;-65
2021/03/21 03:08:17;;;;;;;18.37;11.63;;;6.30;99.90;;;;;;4383696;32;20262;-65
2021/03/21 03:10:48;;;;;;;20.47;11.33;;;6.40;99.80;;;;;;4383781;32;20223;-67
2021/03/21 03:13:20;;;;;;;19.33;12.27;;;6.40;99.90;;;;;;4385091;32;20281;-68
2021/03/21 03:15:48;;;;;;;25.50;13.93;;;6.40;99.90;;;;;;4382660;32;20194;-65
2021/03/21 03:18:27;;;;;;;23.77;13.53;;;6.40;99.90;;;;;;4383375;32;20241;-65
2021/03/21 03:21:01;;;;;;;22.67;14.17;;;6.40;99.90;;;;;;4383427;32;20156;-66
2021/03/21 03:23:33;;;;;;;21.03;13.23;;;6.30;99.90;;;;;;4382621;32;20157;-67
2021/03/21 03:26:05;;;;;;;26.07;15.10;;;6.30;99.90;;;;;;4382452;32;20224;-68
2021/03/21 03:28:38;;;;;;;27.33;15.40;;;6.40;99.90;;;;;;4384889;32;20743;-65
2021/03/21 03:31:11;;;;;;;28.97;16.00;;;6.40;99.90;;;;;;4384556;32;20592;-65
2021/03/21 03:33:38;;;;;;;27.23;15.00;;;6.30;99.90;;;;;;4380740;32;20156;-66
2021/03/21 03:36:07;;;;;;;27.50;15.57;;;6.30;99.90;;;;;;4388332;32;20172;-65
2021/03/21 03:38:34;;;;;;;26.67;16.57;;;6.30;99.90;;;;;;4387428;32;20159;-66
2021/03/21 03:41:06;;;;;;;29.33;17.50;;;6.30;99.90;;;;;;4382754;32;20164;-67
2021/03/21 03:43:41;;;;;;;32.17;18.43;;;6.40;99.90;;;;;;4384378;32;20668;-67
2021/03/21 03:46:15;;;;;;;26.60;16.87;;;6.40;99.90;;;;;;4386824;32;20235;-68
2021/03/21 03:48:49;;;;;;;39.47;19.50;;;6.50;99.90;;;;;;4384875;32;20791;-65
2021/03/21 03:51:27;;;;;;;32.37;19.10;;;6.50;99.90;;;;;;4383306;32;20168;-68
2021/03/21 03:54:15;;;;;;;32.50;18.67;;;6.50;99.90;;;;;;4387415;32;20219;-68
2021/03/21 03:56:49;;;;;;;30.67;18.27;;;6.40;99.90;;;;;;4385425;32;20168;-68
2021/03/21 03:59:45;;;;;;;33.07;18.50;;;6.60;99.90;;;;;;4388739;32;20215;-67
2021/03/21 04:02:18;;;;;;;30.90;18.33;;;6.50;99.90;;;;;;4386644;32;20497;-67
2021/03/21 04:04:52;;;;;;;30.97;18.10;;;6.40;99.90;;;;;;4385196;32;20247;-68
2021/03/21 04:07:24;;;;;;;29.33;16.07;;;6.40;99.90;;;;;;4385141;32;20229;-65
2021/03/21 04:09:54;;;;;;;32.40;16.13;;;6.50;99.90;;;;;;4387284;32;20178;-68
2021/03/21 04:12:32;;;;;;;28.40;16.07;;;6.40;99.90;;;;;;4387327;32;20220;-65
2021/03/21 04:15:06;;;;;;;33.73;15.80;;;6.60;99.90;;;;;;4385719;32;20167;-69
2021/03/21 04:17:40;;;;;;;26.60;15.10;;;6.40;99.90;;;;;;4386610;32;20333;-67
2021/03/21 04:20:11;;;;;;;25.83;13.90;;;6.40;99.90;;;;;;4387775;32;20686;-66
2021/03/21 04:22:42;;;;;;;27.43;14.03;;;6.50;99.90;;;;;;4386715;32;20555;-65
2021/03/21 04:25:14;;;;;;;25.63;14.37;;;6.50;99.90;;;;;;4386266;32;20487;-68
2021/03/21 04:27:48;;;;;;;26.17;12.80;;;6.50;99.90;;;;;;4385753;32;20232;-68
2021/03/21 04:30:18;;;;;;;21.20;11.83;;;6.50;99.90;;;;;;4386539;32;20235;-67
2021/03/21 04:32:48;;;;;;;25.10;12.00;;;6.60;99.80;;;;;;4385157;32;20235;-65
2021/03/21 04:35:17;;;;;;;19.77;10.63;;;6.60;99.80;;;;;;4384435;32;20218;-66
2021/03/21 04:37:47;;;;;;;18.80;9.67;;;6.60;99.40;;;;;;4386698;32;20270;-66
2021/03/21 04:40:18;;;;;;;15.23;8.77;;;6.60;99.20;;;;;;4385075;32;20218;-68
2021/03/21 04:42:49;;;;;;;19.70;9.03;;;6.60;99.10;;;;;;4387708;32;20224;-64
2021/03/21 04:45:19;;;;;;;16.23;8.00;;;6.50;99.10;;;;;;4385969;32;20236;-68
2021/03/21 04:47:54;;;;;;;15.73;7.30;;;6.50;99.10;;;;;;4383929;32;20672;-68
2021/03/21 04:50:21;;;;;;;14.67;7.20;;;6.60;98.60;;;;;;4387533;32;20238;-69
2021/03/21 04:52:51;;;;;;;13.13;7.30;;;6.50;98.60;;;;;;4386631;32;20520;-67
2021/03/21 04:55:22;;;;;;;13.80;7.07;;;6.60;98.50;;;;;;4384740;32;20377;-64
2021/03/21 04:57:51;;;;;;;20.23;5.90;;;6.60;98.40;;;;;;4386404;32;20215;-67
2021/03/21 05:00:25;;;;;;;12.13;5.07;;;6.50;97.90;;;;;;4384776;32;20494;-65
2021/03/21 05:02:57;;;;;;;16.00;4.67;;;6.50;97.90;;;;;;4385234;32;20199;-65
2021/03/21 05:05:29;;;;;;;11.93;4.57;;;6.60;97.40;;;;;;4381159;32;20210;-69
2021/03/21 05:08:01;;;;;;;13.40;3.70;;;6.50;97.40;;;;;;4386083;32;20179;-67
2021/03/21 05:10:33;;;;;;;8.90;3.43;;;6.50;96.20;;;;;;4384365;32;20159;-66
2021/03/21 05:13:05;;;;;;;13.47;3.67;;;6.60;96.20;;;;;;4385881;32;20160;-64
2021/03/21 05:15:39;;;;;;;12.23;3.13;;;6.40;96.80;;;;;;4383014;32;20223;-68
2021/03/21 05:18:19;;;;;;;10.90;3.63;;;6.50;96.60;;;;;;4382844;32;20637;-66
2021/03/21 05:20:53;;;;;;;13.63;3.53;;;6.50;96.60;;;;;;4384051;32;20151;-67
2021/03/21 05:23:34;;;;;;;11.57;3.60;;;6.50;96.80;;;;;;4383203;32;20234;-67
2021/03/21 05:26:05;;;;;;;9.20;2.63;;;6.50;96.10;;;;;;4384120;32;20160;-67
2021/03/21 05:28:51;;;;;;;10.60;3.60;;;6.60;95.60;;;;;;4383032;32;20215;-67
2021/03/21 05:31:18;;;;;;;8.07;2.47;;;6.60;95.90;;;;;;4386753;32;20268;-69
2021/03/21 05:33:46;;;;;;;9.93;3.10;;;6.50;96.10;;;;;;4385025;32;20157;-66
2021/03/21 05:36:23;;;;;;;14.63;4.33;;;6.50;96.10;;;;;;4384800;32;20658;-66
2021/03/21 05:38:55;;;;;;;11.57;3.50;;;6.50;96.10;;;;;;4384830;32;20245;-67
2021/03/21 05:42:03;;;;;;;11.20;3.63;;;6.50;96.10;;;;;;4383917;32;20209;-65
2021/03/21 05:44:59;;;;;;;11.70;3.03;;;6.60;95.70;;;;;;4332288;33;20580;-65
2021/03/21 05:47:44;;;;;;;11.47;3.03;;;6.50;95.90;;;;;;4324285;33;20157;-66
2021/03/21 05:51:07;;;;;;;10.90;2.70;;;6.60;95.70;;;;;;4329430;33;20161;-68
2021/03/21 05:54:13;;;;;;;13.67;3.10;;;6.50;95.60;;;;;;4262893;33;20320;-63
2021/03/21 05:56:56;;;;;;;13.33;3.03;;;6.60;95.40;;;;;;4219067;33;20234;-65
2021/03/21 05:59:47;;;;;;;6.47;2.13;;;6.50;95.00;;;;;;4221280;34;20231;-66
2021/03/21 06:02:43;;;;;;;11.63;2.07;;;6.60;94.20;;;;;;4221001;34;20243;-66
2021/03/21 06:05:50;;;;;;;13.07;2.17;;;6.70;93.40;;;;;;4216139;34;20537;-67
2021/03/21 06:08:30;;;;;;;9.73;3.17;;;6.70;93.70;;;;;;4219987;34;20243;-68
2021/03/21 06:11:23;;;;;;;11.67;2.33;;;6.70;93.90;;;;;;4221869;34;20299;-67
2021/03/21 06:14:03;;;;;;;12.00;2.00;;;6.80;94.00;;;;;;4222479;34;20232;-66
2021/03/21 06:16:57;;;;;;;17.00;3.47;;;6.80;94.20;;;;;;4221252;34;20521;-66
2021/03/21 06:20:11;;;;;;;9.77;2.60;;;6.70;94.60;;;;;;4247709;33;20159;-66
2021/03/21 06:23:14;;;;;;;10.10;2.57;;;6.70;94.30;;;;;;4190745;34;20463;-65
2021/03/21 06:25:52;;;;;;;8.93;3.07;;;6.80;94.10;;;;;;4187927;34;20243;-65
2021/03/21 06:28:44;;;;;;;7.40;2.57;;;6.80;94.20;;;;;;4217256;33;20187;-65
2021/03/21 06:31:43;;;;;;;17.27;3.83;;;6.80;94.50;;;;;;4261060;33;20245;-68
2021/03/21 06:34:20;;;;;;;12.70;2.97;;;6.90;94.10;;;;;;4277468;33;20197;-69
2021/03/21 06:36:52;;;;;;;9.53;2.80;;;7.00;94.50;;;;;;4286219;33;20730;-65
2021/03/21 06:39:54;;;;;;;20.33;3.20;;;7.00;94.20;;;;;;4287416;33;20172;-66
2021/03/21 06:42:49;;;;;;;12.67;2.50;;;7.00;93.90;;;;;;4231442;33;20706;-66
2021/03/21 06:45:52;;;;;;;10.50;2.90;;;7.10;93.80;;;;;;4227720;33;20191;-65
2021/03/21 06:49:02;;;;;;;13.83;2.93;;;7.00;94.20;;;;;;4226130;33;20159;-64
2021/03/21 06:51:43;;;;;;;11.37;2.90;;;7.10;94.00;;;;;;4227599;33;20820;-64
2021/03/21 06:54:32;;;;;;;14.70;2.77;;;7.00;94.20;;;;;;4227247;33;20179;-66
2021/03/21 06:57:35;;;;;;;19.00;2.97;;;7.10;94.30;;;;;;4229023;33;20168;-63
2021/03/21 07:00:44;;;;;;;15.53;2.93;;;7.10;94.30;;;;;;4305086;33;20621;-65
2021/03/21 07:03:38;;;;;;;17.93;2.90;;;7.20;94.30;;;;;;4323193;33;20169;-65
2021/03/21 07:06:51;;;;;;;13.00;3.17;;;7.20;94.30;;;;;;4326846;33;20156;-65
2021/03/21 07:09:52;;;;;;;11.60;2.73;;;7.20;93.10;;;;;;4286965;33;20166;-64
2021/03/21 07:12:40;;;;;;;14.83;2.47;;;7.20;92.90;;;;;;4283085;33;20201;-66
2021/03/21 07:15:40;;;;;;;10.33;2.83;;;7.30;92.10;;;;;;4285609;33;20264;-66
2021/03/21 07:18:30;;;;;;;10.50;2.80;;;7.30;92.00;;;;;;4243929;33;20281;-64
2021/03/21 07:21:15;;;;;;;12.77;2.57;;;7.40;92.20;;;;;;4291111;33;20344;-63
2021/03/21 07:24:43;;;;;;;14.77;3.20;;;7.60;92.10;;;;;;4287572;33;20274;-62
2021/03/21 07:27:48;;;;;;;10.70;2.70;;;7.50;91.70;;;;;;4286655;33;20173;-63
2021/03/21 07:30:21;;;;;;;14.13;2.20;;;7.50;91.60;;;;;;4243203;33;20231;-65
2021/03/21 07:33:24;;;;;;;14.90;2.67;;;7.50;91.60;;;;;;4240510;33;20167;-63
2021/03/21 07:36:02;;;;;;;13.67;2.80;;;7.60;91.80;;;;;;4243495;33;20202;-62
2021/03/21 07:38:45;;;;;;;10.90;2.60;;;7.70;91.40;;;;;;4241527;33;20190;-62
2021/03/21 07:41:23;;;;;;;19.03;2.10;;;7.70;90.70;;;;;;4241713;33;20246;-66
2021/03/21 07:44:12;;;;;;;12.77;2.77;;;7.90;90.50;;;;;;4283050;33;20161;-65
2021/03/21 07:47:01;;;;;;;10.57;2.47;;;7.90;90.60;;;;;;4297200;33;20320;-63
2021/03/21 07:50:09;;;;;;;23.20;3.73;;;7.90;89.00;;;;;;4291166;33;20371;-65
2021/03/21 07:52:52;;;;;;;12.63;2.43;;;7.80;87.40;;;;;;4238759;33;20600;-68
2021/03/21 07:55:25;;;;;;;13.00;3.17;;;7.90;86.60;;;;;;4284324;33;20618;-65
2021/03/21 07:58:01;;;;;;;11.07;3.20;;;8.00;87.10;;;;;;4299474;33;20771;-64
2021/03/21 08:00:27;;;;;;;18.20;2.87;;;8.20;86.10;;;;;;4296216;33;20195;-67
2021/03/21 08:03:26;;;;;;;14.03;2.87;;;7.90;87.00;;;;;;4292402;33;20758;-64
2021/03/21 08:06:02;;;;;;;15.03;3.17;;;7.90;88.50;;;;;;4294965;33;20760;-69
2021/03/21 08:08:38;;;;;;;14.70;2.57;;;7.80;88.00;;;;;;4337687;32;20266;-63
2021/03/21 08:11:20;;;;;;;15.07;3.53;;;7.70;87.60;;;;;;4339217;32;20310;-63
2021/03/21 08:20:33;;;;;;;16.23;3.90;;;7.60;87.10;;;;;;4345002;32;20187;-65
2021/03/21 08:23:14;;;;;;;25.00;4.27;;;7.60;86.40;;;;;;4343264;33;20215;-65
2021/03/21 08:25:43;;;;;;;19.90;3.97;;;7.80;87.00;;;;;;4341630;32;20605;-67
2021/03/21 08:28:12;;;;;;;22.97;3.63;;;7.70;87.20;;;;;;4343520;32;20613;-64
2021/03/21 08:30:50;;;;;;;22.73;4.00;;;7.80;86.30;;;;;;4383735;32;20164;-65
2021/03/21 08:33:31;;;;;;;23.17;4.23;;;7.70;84.40;;;;;;4385168;32;20498;-65
2021/03/21 08:36:19;;;;;;;19.63;4.03;;;7.70;83.60;;;;;;4383975;32;20155;-64
2021/03/21 08:39:03;;;;;;;19.83;4.13;;;7.60;85.00;;;;;;4380158;32;20250;-65
2021/03/21 08:44:31;;;;;;;22.63;4.67;;;7.70;83.80;;;;;;4395373;32;20178;-63
2021/03/21 08:47:01;;;;;;;26.43;4.37;;;7.90;84.40;;;;;;4392436;32;20174;-65
2021/03/21 08:49:38;;;;;;;22.13;4.70;;;8.20;84.40;;;;;;4394336;32;20258;-64
2021/03/21 08:52:06;;;;;;;25.60;5.93;;;8.50;83.70;;;;;;4401287;32;20179;-63
2021/03/21 08:54:39;;;;;;;19.30;4.30;;;8.20;83.00;;;;;;4398353;32;20155;-64
2021/03/21 08:57:32;;;;;;;24.17;4.23;;;8.20;83.80;;;;;;4394349;32;20137;-67
2021/03/21 09:00:22;;;;;;;19.47;3.60;;;8.00;84.50;;;;;;4393219;32;20223;-64
2021/03/21 09:02:50;;;;;;;26.40;5.13;;;8.40;84.70;;;;;;4394164;32;20169;-65
2021/03/21 09:05:24;;;;;;;23.50;4.07;;;8.40;84.20;;;;;;4394202;32;20680;-65
2021/03/21 09:08:04;;;;;;;21.73;4.70;;;8.10;84.60;;;;;;4396003;32;20174;-64
2021/03/21 09:10:54;;;;;;;25.43;5.67;;;7.90;84.90;;;;;;4395401;32;20265;-65
2021/03/21 09:13:24;;;;;;;15.37;4.10;;;7.80;85.30;;;;;;4393029;32;20199;-65
2021/03/21 09:16:06;;;;;;;29.87;5.10;;;8.10;85.70;;;;;;4395032;32;20463;-63
2021/03/21 09:18:36;;;;;;;22.67;4.67;;;8.30;85.40;;;;;;4395565;32;20765;-64
2021/03/21 09:21:22;;;;;;;20.77;5.13;;;8.20;85.70;;;;;;4395486;32;20215;-64
2021/03/21 09:24:08;;;;;;;22.43;4.07;;;8.20;84.30;;;;;;4389340;32;20175;-65
2021/03/21 09:26:43;;;;;;;27.03;4.77;;;8.40;83.60;;;;;;4394418;32;21123;-66
2021/03/21 09:29:35;;;;;;;25.30;4.37;;;8.90;79.50;;;;;;4397448;32;20222;-67
2021/03/21 09:32:08;;;;;;;22.17;5.43;;;9.30;77.30;;;;;;4399885;32;20174;-65
2021/03/21 09:35:35;;;;;;;22.00;4.60;;;9.30;77.00;;;;;;4398233;32;20147;-65
2021/03/21 09:38:08;;;;;;;24.70;5.27;;;10.00;74.50;;;;;;4397817;32;20167;-64
2021/03/21 09:40:38;;;;;;;24.33;5.10;;;9.80;76.30;;;;;;4395547;32;20164;-65
2021/03/21 09:43:12;;;;;;;27.73;5.47;;;10.30;74.30;;;;;;4393174;32;20205;-66
2021/03/21 09:45:44;;;;;;;26.20;5.87;;;10.50;72.60;;;;;;4396216;32;20183;-67
2021/03/21 09:48:25;;;;;;;28.80;4.80;;;9.90;75.40;;;;;;4396058;32;20170;-65
2021/03/21 09:51:03;;;;;;;27.87;5.57;;;10.60;73.20;;;;;;4397651;32;20222;-63
2021/03/21 09:56:51;;;;;;;29.30;5.93;;;10.20;75.40;;;;;;4353470;33;20216;-63
2021/03/21 09:59:45;;;;;;;31.20;5.83;;;9.10;78.50;;;;;;4352945;33;20242;-68
2021/03/21 10:02:25;;;;;;;28.83;6.87;;;9.00;79.50;;;;;;4355940;32;20149;-65
2021/03/21 10:04:59;;;;;;;34.77;6.30;;;8.70;81.80;;;;;;4356259;32;20215;-66
2021/03/21 10:07:40;;;;;;;19.90;5.50;;;9.00;81.50;;;;;;4352962;33;20239;-69
2021/03/21 10:10:22;;;;;;;22.03;5.87;;;9.30;77.60;;;;;;4349621;32;20711;-65
2021/03/21 10:12:49;;;;;;;23.23;4.83;;;9.10;77.10;;;;;;4353733;32;20794;-68
2021/03/21 10:15:24;;;;;;;29.60;5.60;;;8.70;78.30;;;;;;4354420;32;20180;-66
2021/03/21 10:17:55;;;;;;;26.60;5.47;;;8.90;76.70;;;;;;4350040;32;20152;-67
2021/03/21 10:20:40;;;;;;;23.27;5.10;;;9.30;75.60;;;;;;4353103;32;20164;-67
2021/03/21 10:23:07;;;;;;;28.10;4.70;;;9.40;75.10;;;;;;4352779;32;20236;-67
2021/03/21 10:25:58;;;;;;;22.40;4.23;;;10.00;74.10;;;;;;4351844;33;20222;-67
2021/03/21 10:28:45;;;;;;;24.13;4.50;;;10.20;72.20;;;;;;4349495;32;20252;-66
2021/03/21 10:31:41;;;;;;;27.53;5.23;;;9.70;73.20;;;;;;4351460;33;20228;-64
2021/03/21 10:34:38;;;;;;;29.07;5.17;;;9.40;74.30;;;;;;4395840;32;20211;-66
2021/03/21 10:37:07;;;;;;;27.37;5.90;;;8.90;75.40;;;;;;4319864;33;20220;-67
2021/03/21 10:39:54;;;;;;;20.70;4.53;;;8.90;75.20;;;;;;4322092;33;20256;-67
2021/03/21 10:42:53;;;;;;;25.33;5.20;;;9.30;75.00;;;;;;4320090;33;20201;-67
2021/03/21 10:45:52;;;;;;;29.90;4.87;;;9.00;75.10;;;;;;4313426;33;20704;-66
2021/03/21 10:48:59;;;;;;;25.40;5.90;;;9.70;75.10;;;;;;4305985;33;20192;-67
2021/03/21 10:52:14;;;;;;;30.63;5.00;;;9.80;72.20;;;;;;4309361;33;20278;-67
2021/03/21 10:54:42;;;;;;;27.47;4.57;;;8.90;73.60;;;;;;4312532;33;20652;-66
2021/03/21 10:57:36;;;;;;;28.40;6.00;;;8.80;75.40;;;;;;4311842;33;20170;-67
2021/03/21 11:00:21;;;;;;;27.33;5.37;;;9.10;74.30;;;;;;4310738;33;20240;-66
2021/03/21 11:02:51;;;;;;;25.63;5.63;;;9.10;73.70;;;;;;4309355;33;20196;-67
2021/03/21 11:05:36;;;;;;;30.20;6.97;;;8.60;75.20;;;;;;4310635;33;20579;-68
2021/03/21 11:08:18;;;;;;;24.17;5.10;;;8.40;76.50;;;;;;4308505;33;20173;-64
2021/03/21 11:10:50;;;;;;;35.00;5.87;;;8.40;77.60;;;;;;4310598;33;20169;-66
2021/03/21 11:13:27;;;;;;;38.87;6.40;;;8.50;76.00;;;;;;4322555;32;20161;-69
2021/03/21 11:15:55;;;;;;;22.13;5.03;;;8.60;75.90;;;;;;4384074;32;20179;-64
2021/03/21 11:18:42;;;;;;;21.57;4.93;;;8.90;73.70;;;;;;4379978;32;20156;-64
2021/03/21 11:21:27;;;;;;;28.77;5.53;;;9.30;74.40;;;;;;4380252;32;20535;-67
2021/03/21 11:23:59;;;;;;;29.67;5.83;;;9.70;73.30;;;;;;4366823;32;20692;-66
2021/03/21 11:26:41;;;;;;;30.27;7.33;;;9.80;71.80;;;;;;4383686;32;20152;-67
2021/03/21 11:29:22;;;;;;;23.77;5.77;;;9.60;72.20;;;;;;4385318;32;20163;-66
2021/03/21 11:31:53;;;;;;;19.73;5.23;;;9.40;72.20;;;;;;4377613;32;20262;-65
2021/03/21 11:34:25;;;;;;;25.00;5.20;;;9.00;75.10;;;;;;4383257;32;20171;-66
2021/03/21 11:37:03;;;;;;;26.50;6.17;;;9.20;73.80;;;;;;4382982;32;20175;-65
2021/03/21 11:39:35;;;;;;;30.43;5.93;;;9.70;72.70;;;;;;4382404;32;20152;-67
2021/03/21 11:42:02;;;;;;;28.13;5.90;;;9.90;71.50;;;;;;4375525;32;20160;-69
2021/03/21 11:44:32;;;;;;;27.40;5.13;;;10.40;70.50;;;;;;4384874;32;20227;-66
2021/03/21 11:47:12;;;;;;;22.53;5.53;;;10.40;70.30;;;;;;4385310;32;20238;-66
2021/03/21 11:49:41;;;;;;;30.57;5.87;;;10.30;69.50;;;;;;4384077;32;20235;-67
2021/03/21 11:52:11;;;;;;;26.00;5.23;;;9.20;71.70;;;;;;4375656;32;20207;-69
2021/03/21 11:54:43;;;;;;;24.10;6.10;;;9.50;73.70;;;;;;4390277;32;20144;-63
2021/03/21 11:57:31;;;;;;;35.43;6.73;;;10.00;71.50;;;;;;4391847;32;20164;-67
2021/03/21 12:00:12;;;;;;;28.40;6.10;;;9.90;70.70;;;;;;4389762;32;20174;-67
2021/03/21 12:02:45;;;;;;;25.80;6.03;;;9.80;72.20;;;;;;4383558;32;20223;-66
2021/03/21 12:05:20;;;;;;;37.30;6.20;;;9.50;71.40;;;;;;4387573;32;20163;-67
2021/03/21 12:07:49;;;;;;;27.10;5.47;;;8.90;74.10;;;;;;4386579;32;20202;-70
2021/03/21 12:10:30;;;;;;;25.77;6.07;;;8.60;74.70;;;;;;4388824;32;20162;-68
2021/03/21 12:12:56;;;;;;;24.17;6.23;;;8.50;75.30;;;;;;4387484;32;20491;-68
2021/03/21 12:15:38;;;;;;;28.60;7.70;;;8.50;76.20;;;;;;4388789;32;20144;-71
2021/03/21 12:18:16;;;;;;;30.77;6.10;;;8.50;76.80;;;;;;4376542;32;20148;-65
2021/03/21 12:20:45;;;;;;;24.27;6.13;;;8.40;76.90;;;;;;4386467;32;20144;-65
2021/03/21 12:23:40;;;;;;;37.23;6.63;;;8.30;77.90;;;;;;4384270;32;20156;-67
2021/03/21 12:26:14;;;;;;;31.47;6.27;;;8.50;76.90;;;;;;4383132;32;20174;-67
2021/03/21 12:29:02;;;;;;;24.03;5.40;;;8.20;77.60;;;;;;4388622;32;20160;-66
2021/03/21 12:31:36;;;;;;;32.70;7.27;;;8.30;77.90;;;;;;4387587;32;20281;-68
2021/03/21 12:34:37;;;;;;;27.97;5.27;;;8.20;77.10;;;;;;4385303;32;20211;-64
2021/03/21 12:37:07;;;;;;;30.43;6.50;;;8.50;76.00;;;;;;4382642;32;20222;-67
2021/03/21 12:39:39;;;;;;;25.20;5.37;;;8.50;75.40;;;;;;4385025;32;20241;-63
2021/03/21 12:42:33;;;;;;;33.03;6.63;;;8.40;76.90;;;;;;4385187;32;20349;-65
2021/03/21 12:45:17;;;;;;;30.93;7.00;;;8.70;76.30;;;;;;4384908;32;20192;-64
2021/03/21 12:47:45;;;;;;;27.07;5.70;;;8.50;75.40;;;;;;4386062;32;20168;-66
2021/03/21 12:50:45;;;;;;;27.60;6.50;;;8.60;76.00;;;;;;4383520;32;20219;-65
2021/03/21 12:53:22;;;;;;;27.80;6.43;;;8.70;75.20;;;;;;4383556;32;20171;-67
2021/03/21 12:55:50;;;;;;;27.77;6.07;;;9.10;75.60;;;;;;4386841;32;20580;-66
2021/03/21 12:58:18;;;;;;;22.97;5.93;;;9.10;73.30;;;;;;4387433;32;20610;-65
2021/03/21 13:00:44;;;;;;;26.57;6.80;;;9.50;72.20;;;;;;4386829;32;20205;-65
2021/03/21 13:03:21;;;;;;;29.67;7.47;;;9.60;72.40;;;;;;4387895;32;20254;-66
2021/03/21 13:05:51;;;;;;;23.10;5.13;;;9.10;72.30;;;;;;4387901;32;20148;-64
2021/03/21 13:08:18;;;;;;;23.27;5.60;;;9.00;74.30;;;;;;4384974;32;20238;-66
2021/03/21 13:10:47;;;;;;;23.63;4.93;;;8.50;75.70;;;;;;4389916;32;20151;-67
2021/03/21 13:13:16;;;;;;;31.17;5.63;;;8.90;74.20;;;;;;4385438;32;20207;-63
2021/03/21 13:15:43;;;;;;;24.30;5.17;;;8.70;73.50;;;;;;4385952;32;20180;-68
2021/03/21 13:18:17;;;;;;;21.37;4.93;;;8.90;74.50;;;;;;4387125;32;20265;-68
2021/03/21 13:20:44;;;;;;;19.50;5.07;;;8.90;74.10;;;;;;4387833;32;20148;-64
2021/03/21 13:23:11;;;;;;;26.20;5.40;;;9.20;74.20;;;;;;4387680;32;20152;-66
2021/03/21 13:25:41;;;;;;;31.47;6.47;;;9.10;74.80;;;;;;4385916;32;20261;-64
2021/03/21 13:28:11;;;;;;;27.63;6.43;;;9.40;75.10;;;;;;4383749;32;20173;-66
2021/03/21 13:31:18;;;;;;;33.90;6.27;;;9.50;74.80;;;;;;4380400;32;20179;-63
2021/03/21 13:33:51;;;;;;;31.60;6.43;;;9.40;74.90;;;;;;4324615;33;20298;-65
2021/03/21 13:36:19;;;;;;;43.43;7.57;;;9.50;74.90;;;;;;4323820;33;20257;-64
2021/03/21 13:38:45;;;;;;;27.40;5.37;;;9.60;74.80;;;;;;4324414;33;20196;-67
2021/03/21 13:41:12;;;;;;;30.97;9.27;;;9.30;75.20;;;;;;4324547;33;20240;-68
2021/03/21 13:43:38;;;;;;;20.40;4.67;;;8.40;76.20;;;;;;4325629;33;20188;-63
2021/03/21 13:46:05;;;;;;;28.50;5.60;;;8.50;77.00;;;;;;4323667;33;20695;-68
2021/03/21 13:48:38;;;;;;;23.73;5.43;;;8.60;76.80;;;;;;4322059;33;20180;-65
2021/03/21 13:51:07;;;;;;;29.13;5.57;;;9.00;75.70;;;;;;4322940;33;20196;-66
2021/03/21 13:53:37;;;;;;;21.47;4.83;;;9.00;75.70;;;;;;4325029;33;20204;-66